createdAt,value
2023-03-24T00:00:11.682Z,12.30
2023-03-24T00:01:11.226Z,12.30
2023-03-24T00:02:11.264Z,12.32
2023-03-24T00:03:11.300Z,12.32
2023-03-24T00:04:11.293Z,12.33
2023-03-24T00:05:11.283Z,12.33
2023-03-24T00:06:11.168Z,12.32
2023-03-24T00:07:11.168Z,12.32
2023-03-24T00:08:11.158Z,12.33
2023-03-24T00:09:11.152Z,12.30
2023-03-24T00:10:11.517Z,12.32
2023-03-24T00:11:11.115Z,12.29
2023-03-24T00:12:11.119Z,12.30
2023-03-24T00:13:11.099Z,12.29
2023-03-24T00:14:11.084Z,12.29
2023-03-24T00:15:11.892Z,12.28
2023-03-24T00:16:11.098Z,12.28
2023-03-24T00:17:11.062Z,12.29
2023-03-24T00:18:11.084Z,12.28
2023-03-24T00:19:11.040Z,12.28
2023-03-24T00:20:11.350Z,12.26
2023-03-24T00:21:11.010Z,12.25
2023-03-24T00:22:10.990Z,12.30
2023-03-24T00:23:10.994Z,12.26
2023-03-24T00:24:10.973Z,12.25
2023-03-24T00:25:11.175Z,12.26
2023-03-24T00:26:10.956Z,12.25
2023-03-24T00:27:10.942Z,12.28
2023-03-24T00:28:10.928Z,12.26
2023-03-24T00:29:10.944Z,12.28
2023-03-24T00:30:11.662Z,12.26
2023-03-24T00:31:10.909Z,12.25
2023-03-24T00:32:10.889Z,12.22
2023-03-24T00:33:10.933Z,12.22
2023-03-24T00:34:10.868Z,12.26
2023-03-24T00:35:11.743Z,12.23
2023-03-24T00:36:10.903Z,12.23
2023-03-24T00:37:10.836Z,12.25
2023-03-24T00:38:10.823Z,12.22
2023-03-24T00:39:10.817Z,12.22
2023-03-24T00:40:11.081Z,12.22
2023-03-24T00:41:10.803Z,12.22
2023-03-24T00:42:10.776Z,12.21
2023-03-24T00:43:10.770Z,12.22
2023-03-24T00:44:10.760Z,12.17
2023-03-24T00:45:11.487Z,12.17
2023-03-24T00:46:10.736Z,12.17
2023-03-24T00:47:10.732Z,12.17
2023-03-24T00:48:10.758Z,12.14
2023-03-24T00:49:10.708Z,12.11
2023-03-24T00:50:10.977Z,12.14
2023-03-24T00:51:10.685Z,12.13
2023-03-24T00:52:10.669Z,12.11
2023-03-24T00:53:10.661Z,12.04
2023-03-24T00:54:10.648Z,12.04
2023-03-24T00:55:10.652Z,12.08
2023-03-24T00:56:10.622Z,12.05
2023-03-24T00:57:10.653Z,12.03
2023-03-24T00:58:10.608Z,12.03
2023-03-24T00:59:11.073Z,12.04
2023-03-24T01:00:11.258Z,11.99
2023-03-24T01:01:10.611Z,11.96
2023-03-24T01:02:10.607Z,11.99
2023-03-24T01:03:10.594Z,11.95
2023-03-24T01:04:10.704Z,11.97
2023-03-24T01:05:10.546Z,11.96
2023-03-24T01:06:10.513Z,11.96
2023-03-24T01:07:10.510Z,11.97
2023-03-24T01:08:10.493Z,11.96
2023-03-24T01:09:10.494Z,11.93
2023-03-24T01:10:10.695Z,11.95
2023-03-24T01:11:10.459Z,11.88
2023-03-24T01:12:10.451Z,11.89
2023-03-24T01:13:10.489Z,11.87
2023-03-24T01:14:10.435Z,11.87
2023-03-24T01:15:11.256Z,11.85
2023-03-24T01:16:10.424Z,11.84
2023-03-24T01:17:10.392Z,11.89
2023-03-24T01:18:10.419Z,11.87
2023-03-24T01:19:10.384Z,11.82
2023-03-24T01:20:10.643Z,11.79
2023-03-24T01:21:10.353Z,11.85
2023-03-24T01:22:10.344Z,11.84
2023-03-24T01:23:10.326Z,11.84
2023-03-24T01:24:10.317Z,11.77
2023-03-24T01:25:11.160Z,11.80
2023-03-24T01:26:10.296Z,11.79
2023-03-24T01:27:10.284Z,11.76
2023-03-24T01:28:10.302Z,11.77
2023-03-24T01:29:10.260Z,11.77
2023-03-24T01:30:11.019Z,11.79
2023-03-24T01:31:10.241Z,11.74
2023-03-24T01:32:10.226Z,11.70
2023-03-24T01:33:10.218Z,11.71
2023-03-24T01:34:10.204Z,11.73
2023-03-24T01:35:10.778Z,11.67
2023-03-24T01:36:10.208Z,11.69
2023-03-24T01:37:10.173Z,11.69
2023-03-24T01:38:10.159Z,11.69
2023-03-24T01:39:10.157Z,11.66
2023-03-24T01:40:10.386Z,11.67
2023-03-24T01:41:10.133Z,11.64
2023-03-24T01:42:10.113Z,11.59
2023-03-24T01:43:10.108Z,11.64
2023-03-24T01:44:10.096Z,11.61
2023-03-24T01:45:10.088Z,11.59
2023-03-24T01:46:10.395Z,11.58
2023-03-24T01:47:10.068Z,11.56
2023-03-24T01:48:10.072Z,11.62
2023-03-24T01:49:10.061Z,11.59
2023-03-24T01:50:10.033Z,11.55
2023-03-24T01:51:10.356Z,11.55
2023-03-24T01:52:10.013Z,11.55
2023-03-24T01:53:10.000Z,11.54
2023-03-24T01:54:09.984Z,11.52
2023-03-24T01:55:09.976Z,11.58
2023-03-24T01:56:10.141Z,11.59
2023-03-24T01:57:10.029Z,11.62
2023-03-24T01:58:09.951Z,11.61
2023-03-24T01:59:09.932Z,11.58
2023-03-24T02:00:09.942Z,11.61
2023-03-24T02:01:10.291Z,11.61
2023-03-24T02:02:09.915Z,11.61
2023-03-24T02:03:09.916Z,11.67
2023-03-24T02:04:09.908Z,11.64
2023-03-24T02:05:09.881Z,11.61
2023-03-24T02:06:10.153Z,11.62
2023-03-24T02:07:09.850Z,11.67
2023-03-24T02:08:09.840Z,11.67
2023-03-24T02:09:09.831Z,11.67
2023-03-24T02:10:09.822Z,11.69
2023-03-24T02:11:10.127Z,11.70
2023-03-24T02:12:09.796Z,11.73
2023-03-24T02:13:09.782Z,11.70
2023-03-24T02:14:09.776Z,11.71
2023-03-24T02:15:09.766Z,11.71
2023-03-24T02:16:10.058Z,11.74
2023-03-24T02:17:09.740Z,11.74
2023-03-24T02:18:09.781Z,11.76
2023-03-24T02:19:09.715Z,11.76
2023-03-24T02:20:09.708Z,11.74
2023-03-24T02:21:10.002Z,11.77
2023-03-24T02:22:09.690Z,11.76
2023-03-24T02:23:09.671Z,11.74
2023-03-24T02:24:09.664Z,11.73
2023-03-24T02:25:09.657Z,11.76
2023-03-24T02:26:10.034Z,11.77
2023-03-24T02:27:09.635Z,11.76
2023-03-24T02:28:09.630Z,11.77
2023-03-24T02:29:09.609Z,11.79
2023-03-24T02:30:09.604Z,11.76
2023-03-24T02:31:09.786Z,11.76
2023-03-24T02:32:09.582Z,11.76
2023-03-24T02:33:09.564Z,11.79
2023-03-24T02:34:09.556Z,11.79
2023-03-24T02:35:09.544Z,11.79
2023-03-24T02:36:09.913Z,11.82
2023-03-24T02:37:09.521Z,11.80
2023-03-24T02:38:09.517Z,11.79
2023-03-24T02:39:09.523Z,11.84
2023-03-24T02:40:09.497Z,11.85
2023-03-24T02:41:09.661Z,11.79
2023-03-24T02:42:09.481Z,11.82
2023-03-24T02:43:09.462Z,11.82
2023-03-24T02:44:09.446Z,11.84
2023-03-24T02:45:09.439Z,11.80
2023-03-24T02:46:09.516Z,11.82
2023-03-24T02:47:09.429Z,11.79
2023-03-24T02:48:10.526Z,11.82
2023-03-24T02:49:09.423Z,11.82
2023-03-24T02:50:09.382Z,11.80
2023-03-24T02:51:09.683Z,11.85
2023-03-24T02:52:09.377Z,11.84
2023-03-24T02:53:09.349Z,11.76
2023-03-24T02:54:09.335Z,11.82
2023-03-24T02:55:09.329Z,11.82
2023-03-24T02:56:09.341Z,11.82
2023-03-24T02:57:09.356Z,11.82
2023-03-24T02:58:09.291Z,11.79
2023-03-24T02:59:09.288Z,11.77
2023-03-24T03:00:09.269Z,11.82
2023-03-24T03:01:09.615Z,11.76
2023-03-24T03:02:09.245Z,11.76
2023-03-24T03:03:09.242Z,11.77
2023-03-24T03:04:09.287Z,11.77
2023-03-24T03:05:09.215Z,11.77
2023-03-24T03:06:09.379Z,11.74
2023-03-24T03:07:09.194Z,11.76
2023-03-24T03:08:09.181Z,11.77
2023-03-24T03:09:09.171Z,11.77
2023-03-24T03:10:09.162Z,11.73
2023-03-24T03:11:09.497Z,11.74
2023-03-24T03:12:09.136Z,11.71
2023-03-24T03:13:09.139Z,11.76
2023-03-24T03:14:09.118Z,11.76
2023-03-24T03:15:09.104Z,11.73
2023-03-24T03:16:09.121Z,11.71
2023-03-24T03:17:09.090Z,11.70
2023-03-24T03:18:09.117Z,11.69
2023-03-24T03:19:09.063Z,11.70
2023-03-24T03:20:09.066Z,11.67
2023-03-24T03:21:09.436Z,11.70
2023-03-24T03:22:09.030Z,11.69
2023-03-24T03:23:09.023Z,11.71
2023-03-24T03:24:09.012Z,11.70
2023-03-24T03:25:09.005Z,11.70
2023-03-24T03:26:09.003Z,11.67
2023-03-24T03:27:08.983Z,11.66
2023-03-24T03:28:08.971Z,11.66
2023-03-24T03:29:08.961Z,11.62
2023-03-24T03:30:08.950Z,11.58
2023-03-24T03:31:09.331Z,11.56
2023-03-24T03:32:08.928Z,11.56
2023-03-24T03:33:08.967Z,11.56
2023-03-24T03:34:08.906Z,11.59
2023-03-24T03:35:08.905Z,11.55
2023-03-24T03:36:09.210Z,11.55
2023-03-24T03:37:08.874Z,11.54
2023-03-24T03:38:08.859Z,11.54
2023-03-24T03:39:08.866Z,11.48
2023-03-24T03:40:08.849Z,11.51
2023-03-24T03:41:09.183Z,11.48
2023-03-24T03:42:08.821Z,11.51
2023-03-24T03:43:08.815Z,11.51
2023-03-24T03:44:08.796Z,11.48
2023-03-24T03:45:08.790Z,11.48
2023-03-24T03:46:08.817Z,11.48
2023-03-24T03:47:08.763Z,11.46
2023-03-24T03:48:08.816Z,11.45
2023-03-24T03:49:08.752Z,11.48
2023-03-24T03:50:08.766Z,11.45
2023-03-24T03:51:13.737Z,11.43
2023-03-24T03:52:08.714Z,11.43
2023-03-24T03:53:08.700Z,11.45
2023-03-24T03:54:08.690Z,11.43
2023-03-24T03:55:08.679Z,11.40
2023-03-24T03:56:08.986Z,11.46
2023-03-24T03:57:08.695Z,11.45
2023-03-24T03:58:08.651Z,11.45
2023-03-24T03:59:08.639Z,11.46
2023-03-24T04:00:08.622Z,11.46
2023-03-24T04:01:08.646Z,11.48
2023-03-24T04:02:08.690Z,11.46
2023-03-24T04:03:08.656Z,11.46
2023-03-24T04:04:08.576Z,11.45
2023-03-24T04:05:08.572Z,11.49
2023-03-24T04:06:08.927Z,11.48
2023-03-24T04:07:08.546Z,11.49
2023-03-24T04:08:08.526Z,11.45
2023-03-24T04:09:08.526Z,11.45
2023-03-24T04:10:08.513Z,11.46
2023-03-24T04:11:08.768Z,11.45
2023-03-24T04:12:08.485Z,11.48
2023-03-24T04:13:08.485Z,11.43
2023-03-24T04:14:08.467Z,11.43
2023-03-24T04:15:08.457Z,11.38
2023-03-24T04:16:08.488Z,11.41
2023-03-24T04:17:08.438Z,11.40
2023-03-24T04:18:08.422Z,11.41
2023-03-24T04:19:08.415Z,11.40
2023-03-24T04:20:08.414Z,11.37
2023-03-24T04:21:08.673Z,11.38
2023-03-24T04:22:08.379Z,11.36
2023-03-24T04:23:08.384Z,11.33
2023-03-24T04:24:08.352Z,11.36
2023-03-24T04:25:08.357Z,11.34
2023-03-24T04:26:08.839Z,11.33
2023-03-24T04:27:08.333Z,11.31
2023-03-24T04:28:08.313Z,11.34
2023-03-24T04:29:08.307Z,11.28
2023-03-24T04:30:08.292Z,11.28
2023-03-24T04:31:08.582Z,11.28
2023-03-24T04:32:08.272Z,11.31
2023-03-24T04:33:08.277Z,11.30
2023-03-24T04:34:08.248Z,11.31
2023-03-24T04:35:08.249Z,11.33
2023-03-24T04:36:08.254Z,11.31
2023-03-24T04:37:08.648Z,11.28
2023-03-24T04:38:08.212Z,11.30
2023-03-24T04:39:08.199Z,11.28
2023-03-24T04:40:08.185Z,11.25
2023-03-24T04:41:08.181Z,11.30
2023-03-24T04:42:08.507Z,11.28
2023-03-24T04:43:08.148Z,11.28
2023-03-24T04:44:08.139Z,11.27
2023-03-24T04:45:08.128Z,11.27
2023-03-24T04:46:08.182Z,11.25
2023-03-24T04:47:08.442Z,11.28
2023-03-24T04:48:08.131Z,11.28
2023-03-24T04:49:08.092Z,11.25
2023-03-24T04:50:08.113Z,11.28
2023-03-24T04:51:08.067Z,11.30
2023-03-24T04:52:08.084Z,11.25
2023-03-24T04:53:08.050Z,11.25
2023-03-24T04:54:08.035Z,11.31
2023-03-24T04:55:08.033Z,11.30
2023-03-24T04:56:07.976Z,11.28
2023-03-24T04:57:08.311Z,11.27
2023-03-24T04:58:07.996Z,11.30
2023-03-24T04:59:07.948Z,11.31
2023-03-24T05:00:07.928Z,11.30
2023-03-24T05:01:08.011Z,11.30
2023-03-24T05:02:08.261Z,11.33
2023-03-24T05:03:07.935Z,11.37
2023-03-24T05:04:07.889Z,11.34
2023-03-24T05:05:07.877Z,11.38
2023-03-24T05:06:07.866Z,11.37
2023-03-24T05:07:08.207Z,11.37
2023-03-24T05:08:07.851Z,11.38
2023-03-24T05:09:07.833Z,11.38
2023-03-24T05:10:07.832Z,11.37
2023-03-24T05:11:07.813Z,11.36
2023-03-24T05:12:08.119Z,11.40
2023-03-24T05:13:07.788Z,11.40
2023-03-24T05:14:07.783Z,11.40
2023-03-24T05:15:07.771Z,11.37
2023-03-24T05:16:07.778Z,11.40
2023-03-24T05:17:07.786Z,11.36
2023-03-24T05:18:07.771Z,11.38
2023-03-24T05:19:07.744Z,11.38
2023-03-24T05:20:07.710Z,11.33
2023-03-24T05:21:07.713Z,11.33
2023-03-24T05:22:07.722Z,11.34
2023-03-24T05:23:07.692Z,11.36
2023-03-24T05:24:07.672Z,11.40
2023-03-24T05:25:07.661Z,11.40
2023-03-24T05:26:07.650Z,11.40
2023-03-24T05:27:07.667Z,11.38
2023-03-24T05:28:07.631Z,11.46
2023-03-24T05:29:07.637Z,11.41
2023-03-24T05:30:07.604Z,11.48
2023-03-24T05:31:07.644Z,11.45
2023-03-24T05:32:07.599Z,11.49
2023-03-24T05:33:07.646Z,11.49
2023-03-24T05:34:07.606Z,11.51
2023-03-24T05:35:07.572Z,11.52
2023-03-24T05:36:07.594Z,11.54
2023-03-24T05:37:07.568Z,11.52
2023-03-24T05:38:07.527Z,11.52
2023-03-24T05:39:07.520Z,11.58
2023-03-24T05:40:07.507Z,11.56
2023-03-24T05:41:07.494Z,11.56
2023-03-24T05:42:07.763Z,11.59
2023-03-24T05:43:07.474Z,11.67
2023-03-24T05:44:07.460Z,11.67
2023-03-24T05:45:07.458Z,11.67
2023-03-24T05:46:07.471Z,11.67
2023-03-24T05:47:07.880Z,11.69
2023-03-24T05:48:07.500Z,11.70
2023-03-24T05:49:07.405Z,11.74
2023-03-24T05:50:07.395Z,11.74
2023-03-24T05:51:07.393Z,11.77
2023-03-24T05:52:07.387Z,11.79
2023-03-24T05:53:07.364Z,11.82
2023-03-24T05:54:07.384Z,11.79
2023-03-24T05:55:07.349Z,11.82
2023-03-24T05:56:07.322Z,11.84
2023-03-24T05:57:07.401Z,11.82
2023-03-24T05:58:07.319Z,11.82
2023-03-24T05:59:07.301Z,11.84
2023-03-24T06:00:07.281Z,11.85
2023-03-24T06:01:07.274Z,11.87
2023-03-24T06:02:07.741Z,11.87
2023-03-24T06:03:07.357Z,11.88
2023-03-24T06:04:07.283Z,11.89
2023-03-24T06:05:07.236Z,11.84
2023-03-24T06:06:07.217Z,11.91
2023-03-24T06:07:07.227Z,11.88
2023-03-24T06:08:07.202Z,11.91
2023-03-24T06:09:07.189Z,11.91
2023-03-24T06:10:07.188Z,11.89
2023-03-24T06:11:07.234Z,11.93
2023-03-24T06:12:07.164Z,11.96
2023-03-24T06:13:07.217Z,11.96
2023-03-24T06:14:07.133Z,11.97
2023-03-24T06:15:07.144Z,11.95
2023-03-24T06:16:07.113Z,11.96
2023-03-24T06:17:07.128Z,11.99
2023-03-24T06:18:07.145Z,12.00
2023-03-24T06:19:07.084Z,11.99
2023-03-24T06:20:07.067Z,12.00
2023-03-24T06:21:07.068Z,12.00
2023-03-24T06:22:07.064Z,12.03
2023-03-24T06:23:07.058Z,12.07
2023-03-24T06:24:07.020Z,12.10
2023-03-24T06:25:07.031Z,12.10
2023-03-24T06:26:06.998Z,12.15
2023-03-24T06:27:07.372Z,12.18
2023-03-24T06:28:06.974Z,12.18
2023-03-24T06:29:06.973Z,12.22
2023-03-24T06:30:06.972Z,12.25
2023-03-24T06:31:07.008Z,12.23
2023-03-24T06:32:07.256Z,12.26
2023-03-24T06:33:08.375Z,12.25
2023-03-24T06:34:06.910Z,12.26
2023-03-24T06:35:06.906Z,12.30
2023-03-24T06:36:06.949Z,12.29
2023-03-24T06:37:06.905Z,12.32
2023-03-24T06:38:06.868Z,12.36
2023-03-24T06:39:06.865Z,12.35
2023-03-24T06:40:06.849Z,12.35
2023-03-24T06:41:06.851Z,12.33
2023-03-24T06:42:07.161Z,12.33
2023-03-24T06:43:06.825Z,12.33
2023-03-24T06:44:06.804Z,12.32
2023-03-24T06:45:06.838Z,12.35
2023-03-24T06:46:06.835Z,12.33
2023-03-24T06:47:07.222Z,12.32
2023-03-24T06:48:06.824Z,12.32
2023-03-24T06:49:06.762Z,12.33
2023-03-24T06:50:06.738Z,12.35
2023-03-24T06:51:06.773Z,12.35
2023-03-24T06:52:06.733Z,12.36
2023-03-24T06:53:06.719Z,12.38
2023-03-24T06:54:06.701Z,12.38
2023-03-24T06:55:06.691Z,12.38
2023-03-24T06:56:06.681Z,12.43
2023-03-24T06:57:06.704Z,12.36
2023-03-24T06:58:06.660Z,12.44
2023-03-24T06:59:06.662Z,12.44
2023-03-24T07:00:06.652Z,12.43
2023-03-24T07:01:06.628Z,12.46
2023-03-24T07:02:07.034Z,12.47
2023-03-24T07:03:06.656Z,12.44
2023-03-24T07:04:06.686Z,12.46
2023-03-24T07:05:06.591Z,12.46
2023-03-24T07:06:06.574Z,12.46
2023-03-24T07:08:34.002Z,12.44
2023-03-24T07:09:06.552Z,12.41
2023-03-24T07:10:06.536Z,12.35
2023-03-24T07:11:06.516Z,12.29
2023-03-24T07:12:07.243Z,12.25
2023-03-24T07:13:06.498Z,12.22
2023-03-24T07:14:06.496Z,12.17
2023-03-24T07:15:06.483Z,12.11
2023-03-24T07:16:06.492Z,12.08
2023-03-24T07:17:06.786Z,12.05
2023-03-24T07:18:06.450Z,12.05
2023-03-24T07:19:06.434Z,11.99
2023-03-24T07:20:06.431Z,11.99
2023-03-24T07:21:06.410Z,11.95
2023-03-24T07:22:06.721Z,11.95
2023-03-24T07:23:06.389Z,11.91
2023-03-24T07:24:06.584Z,11.87
2023-03-24T07:25:06.539Z,11.82
2023-03-24T07:26:06.379Z,11.80
2023-03-24T07:27:06.760Z,11.74
2023-03-24T07:28:06.342Z,11.73
2023-03-24T07:29:06.333Z,11.71
2023-03-24T07:30:06.320Z,11.73
2023-03-24T07:31:06.349Z,11.70
2023-03-24T07:32:06.301Z,11.67
2023-03-24T07:33:06.662Z,11.69
2023-03-24T07:34:06.287Z,11.71
2023-03-24T07:35:06.264Z,11.73
2023-03-24T07:36:06.271Z,11.73
2023-03-24T07:37:06.243Z,11.74
2023-03-24T07:38:06.269Z,11.73
2023-03-24T07:39:06.219Z,11.77
2023-03-24T07:40:06.221Z,11.76
2023-03-24T07:41:06.220Z,11.82
2023-03-24T07:42:06.209Z,11.89
2023-03-24T07:43:07.039Z,11.93
2023-03-24T07:44:06.212Z,11.95
2023-03-24T07:45:06.158Z,11.93
2023-03-24T07:46:07.272Z,11.99
2023-03-24T07:47:06.143Z,12.00
2023-03-24T07:48:06.675Z,12.03
2023-03-24T07:49:18.183Z,12.04
2023-03-24T07:50:06.118Z,12.08
2023-03-24T07:51:06.092Z,12.08
2023-03-24T07:52:06.087Z,12.05
2023-03-24T07:53:06.199Z,12.07
2023-03-24T07:54:06.070Z,12.10
2023-03-24T07:55:06.055Z,12.13
2023-03-24T07:56:06.060Z,12.17
2023-03-24T07:57:07.370Z,12.28
2023-03-24T07:58:06.563Z,12.25
2023-03-24T07:59:06.045Z,12.30
2023-03-24T08:00:06.006Z,12.33
2023-03-24T08:01:05.995Z,12.38
2023-03-24T08:02:06.014Z,12.32
2023-03-24T08:03:06.063Z,12.30
2023-03-24T08:04:06.047Z,12.29
2023-03-24T08:05:05.954Z,12.21
2023-03-24T08:06:05.945Z,12.23
2023-03-24T08:07:05.929Z,12.26
2023-03-24T08:08:06.115Z,12.25
2023-03-24T08:09:05.921Z,12.26
2023-03-24T08:10:05.903Z,12.26
2023-03-24T08:11:05.891Z,12.32
2023-03-24T08:12:17.368Z,12.32
2023-03-24T08:13:06.550Z,12.33
2023-03-24T08:14:05.870Z,12.35
2023-03-24T08:15:05.852Z,12.35
2023-03-24T08:16:05.863Z,12.36
2023-03-24T08:17:05.828Z,12.33
2023-03-24T08:18:06.019Z,12.32
2023-03-24T08:19:05.805Z,12.35
2023-03-24T08:20:06.190Z,12.33
2023-03-24T08:21:05.782Z,12.35
2023-03-24T08:22:05.887Z,12.30
2023-03-24T08:23:06.078Z,12.22
2023-03-24T08:24:05.757Z,12.23
2023-03-24T08:25:05.745Z,12.22
2023-03-24T08:26:05.743Z,12.21
2023-03-24T08:27:05.722Z,12.21
2023-03-24T08:28:06.283Z,12.17
2023-03-24T08:29:05.701Z,12.14
2023-03-24T08:30:05.695Z,12.10
2023-03-24T08:31:05.764Z,12.08
2023-03-24T08:32:05.674Z,12.05
2023-03-24T08:33:06.077Z,12.00
2023-03-24T08:34:05.655Z,12.03
2023-03-24T08:35:05.636Z,12.00
2023-03-24T08:36:05.650Z,11.97
2023-03-24T08:37:05.711Z,11.99
2023-03-24T08:38:07.117Z,12.00
2023-03-24T08:39:05.599Z,11.97
2023-03-24T08:40:05.627Z,11.97
2023-03-24T08:41:05.576Z,11.97
2023-03-24T08:42:05.572Z,11.93
2023-03-24T08:43:05.879Z,11.96
2023-03-24T08:44:07.029Z,11.93
2023-03-24T08:45:05.537Z,11.89
2023-03-24T08:46:05.542Z,11.93
2023-03-24T08:47:05.525Z,11.91
2023-03-24T08:48:05.881Z,11.96
2023-03-24T08:49:05.499Z,12.00
2023-03-24T08:50:05.487Z,11.99
2023-03-24T08:51:05.472Z,11.97
2023-03-24T08:52:05.476Z,11.99
2023-03-24T08:53:05.783Z,12.04
2023-03-24T08:54:05.444Z,12.07
2023-03-24T08:55:05.425Z,12.08
2023-03-24T08:56:05.423Z,12.15
2023-03-24T08:57:05.431Z,12.18
2023-03-24T08:58:06.002Z,12.23
2023-03-24T08:59:05.387Z,12.22
2023-03-24T09:00:05.380Z,12.28
2023-03-24T09:01:05.366Z,12.23
2023-03-24T09:02:05.405Z,12.25
2023-03-24T09:03:05.576Z,12.25
2023-03-24T09:04:05.336Z,12.25
2023-03-24T09:05:05.392Z,12.18
2023-03-24T09:06:05.321Z,12.22
2023-03-24T09:07:05.301Z,12.25
2023-03-24T09:08:05.486Z,12.22
2023-03-24T09:09:05.282Z,12.26
2023-03-24T09:10:05.274Z,12.28
2023-03-24T09:11:05.254Z,12.26
2023-03-24T09:12:05.251Z,12.32
2023-03-24T09:13:05.565Z,12.30
2023-03-24T09:14:05.231Z,12.35
2023-03-24T09:15:05.234Z,12.35
2023-03-24T09:16:05.223Z,12.35
2023-03-24T09:17:05.203Z,12.35
2023-03-24T09:18:05.699Z,12.36
2023-03-24T09:19:05.181Z,12.44
2023-03-24T09:20:05.169Z,12.47
2023-03-24T09:21:05.166Z,12.46
2023-03-24T09:22:05.153Z,12.47
2023-03-24T09:23:05.506Z,12.53
2023-03-24T09:24:05.134Z,12.58
2023-03-24T09:25:05.109Z,12.65
2023-03-24T09:26:05.111Z,12.66
2023-03-24T09:27:05.135Z,12.77
2023-03-24T09:28:05.937Z,12.80
2023-03-24T09:29:05.074Z,12.86
2023-03-24T09:30:05.068Z,12.93
2023-03-24T09:31:05.091Z,13.05
2023-03-24T09:32:05.045Z,13.08
2023-03-24T09:33:05.779Z,13.09
2023-03-24T09:34:05.036Z,13.13
2023-03-24T09:35:05.004Z,13.16
2023-03-24T09:36:05.023Z,13.17
2023-03-24T09:37:04.986Z,13.29
2023-03-24T09:38:05.682Z,13.29
2023-03-24T09:39:04.969Z,13.29
2023-03-24T09:40:04.947Z,13.30
2023-03-24T09:41:04.941Z,13.40
2023-03-24T09:42:04.922Z,13.43
2023-03-24T09:43:05.708Z,13.51
2023-03-24T09:44:04.918Z,13.51
2023-03-24T09:45:04.890Z,13.54
2023-03-24T09:46:04.877Z,13.64
2023-03-24T09:47:04.909Z,13.64
2023-03-24T09:48:05.305Z,13.57
2023-03-24T09:49:04.839Z,13.42
2023-03-24T09:50:04.841Z,13.30
2023-03-24T09:51:04.823Z,13.30
2023-03-24T09:52:04.817Z,13.23
2023-03-24T09:53:05.322Z,13.11
2023-03-24T09:54:04.806Z,13.17
2023-03-24T09:55:04.777Z,13.04
2023-03-24T09:56:04.775Z,13.02
2023-03-24T09:57:04.784Z,12.87
2023-03-24T09:58:05.046Z,12.84
2023-03-24T09:59:04.729Z,12.79
2023-03-24T10:00:04.725Z,12.79
2023-03-24T10:01:04.761Z,12.69
2023-03-24T10:02:04.708Z,12.68
2023-03-24T10:03:05.117Z,12.65
2023-03-24T10:04:04.792Z,12.54
2023-03-24T10:05:04.671Z,12.55
2023-03-24T10:06:04.664Z,12.51
2023-03-24T10:07:04.658Z,12.48
2023-03-24T10:08:04.932Z,12.50
2023-03-24T10:09:04.627Z,12.46
2023-03-24T10:10:04.619Z,12.46
2023-03-24T10:11:04.601Z,12.46
2023-03-24T10:12:04.596Z,12.46
2023-03-24T10:13:04.945Z,12.50
2023-03-24T10:14:04.599Z,12.50
2023-03-24T10:15:04.564Z,12.61
2023-03-24T10:16:04.564Z,12.62
2023-03-24T10:17:04.561Z,12.63
2023-03-24T10:18:04.545Z,12.72
2023-03-24T10:19:04.982Z,12.73
2023-03-24T10:20:04.513Z,12.80
2023-03-24T10:21:04.493Z,12.73
2023-03-24T10:22:04.491Z,12.73
2023-03-24T10:23:04.821Z,12.77
2023-03-24T10:24:04.493Z,12.76
2023-03-24T10:25:04.447Z,12.68
2023-03-24T10:26:04.445Z,12.72
2023-03-24T10:27:04.437Z,12.69
2023-03-24T10:28:04.420Z,12.62
2023-03-24T10:29:04.761Z,12.58
2023-03-24T10:30:04.392Z,12.59
2023-03-24T10:31:04.379Z,12.55
2023-03-24T10:32:04.395Z,12.54
2023-03-24T10:33:04.370Z,12.54
2023-03-24T10:34:04.630Z,12.53
2023-03-24T10:35:04.378Z,12.55
2023-03-24T10:36:06.433Z,12.62
2023-03-24T10:37:04.339Z,12.58
2023-03-24T10:38:04.307Z,12.63
2023-03-24T10:39:16.622Z,12.66
2023-03-24T10:40:04.287Z,12.66
2023-03-24T10:41:04.272Z,12.68
2023-03-24T10:42:06.118Z,12.66
2023-03-24T10:43:06.774Z,12.69
2023-03-24T10:44:04.532Z,12.77
2023-03-24T10:45:04.219Z,12.81
2023-03-24T10:46:04.251Z,12.80
2023-03-24T10:47:04.200Z,12.73
2023-03-24T10:48:04.271Z,12.80
2023-03-24T10:49:04.858Z,12.86
2023-03-24T10:50:12.003Z,12.84
2023-03-24T10:51:04.155Z,12.80
2023-03-24T10:52:04.171Z,12.76
2023-03-24T10:53:04.132Z,12.76
2023-03-24T10:54:04.423Z,12.72
2023-03-24T10:55:04.111Z,12.69
2023-03-24T10:56:04.101Z,12.76
2023-03-24T10:57:04.149Z,12.81
2023-03-24T10:58:04.829Z,12.86
2023-03-24T10:59:04.617Z,12.95
2023-03-24T11:00:04.062Z,13.02
2023-03-24T11:01:04.060Z,13.08
2023-03-24T11:02:04.181Z,13.17
2023-03-24T11:03:04.112Z,13.11
2023-03-24T11:04:04.023Z,13.14
2023-03-24T11:05:03.994Z,13.30
2023-03-24T11:06:03.986Z,13.35
2023-03-24T11:07:03.967Z,13.21
2023-03-24T11:08:03.951Z,13.17
2023-03-24T11:09:03.961Z,13.23
2023-03-24T11:10:03.944Z,13.32
2023-03-24T11:11:03.929Z,13.40
2023-03-24T11:12:03.910Z,13.49
2023-03-24T11:13:03.918Z,13.60
2023-03-24T11:14:03.969Z,13.72
2023-03-24T11:15:17.636Z,13.88
2023-03-24T11:16:03.910Z,13.97
2023-03-24T11:17:03.879Z,14.11
2023-03-24T11:18:03.899Z,14.11
2023-03-24T11:19:03.846Z,14.00
2023-03-24T11:20:03.817Z,13.96
2023-03-24T11:21:03.827Z,13.94
2023-03-24T11:22:03.791Z,13.82
2023-03-24T11:23:03.769Z,13.83
2023-03-24T11:24:03.797Z,13.85
2023-03-24T11:25:03.744Z,13.80
2023-03-24T11:26:03.725Z,13.76
2023-03-24T11:27:03.784Z,13.68
2023-03-24T11:28:03.706Z,13.58
2023-03-24T11:29:03.960Z,13.64
2023-03-24T11:30:03.678Z,13.60
2023-03-24T11:31:03.728Z,13.60
2023-03-24T11:32:03.650Z,13.64
2023-03-24T11:33:03.697Z,13.54
2023-03-24T11:34:03.964Z,13.40
2023-03-24T11:35:03.642Z,13.35
2023-03-24T11:36:06.012Z,13.32
2023-03-24T11:37:03.658Z,13.32
2023-03-24T11:38:03.576Z,13.27
2023-03-24T11:39:03.896Z,13.21
2023-03-24T11:40:03.552Z,13.16
2023-03-24T11:41:03.557Z,13.16
2023-03-24T11:42:03.592Z,13.11
2023-03-24T11:43:03.535Z,13.06
2023-03-24T11:44:03.815Z,13.02
2023-03-24T11:45:03.509Z,12.99
2023-03-24T11:46:03.519Z,12.95
2023-03-24T11:47:03.479Z,12.95
2023-03-24T11:48:03.564Z,12.98
2023-03-24T11:49:03.792Z,12.91
2023-03-24T11:50:03.425Z,12.87
2023-03-24T11:51:03.419Z,12.83
2023-03-24T11:52:03.496Z,12.83
2023-03-24T11:53:03.394Z,12.80
2023-03-24T11:54:03.647Z,12.81
2023-03-24T11:55:03.384Z,12.87
2023-03-24T11:56:03.357Z,13.01
2023-03-24T11:57:03.387Z,13.05
2023-03-24T11:58:03.367Z,13.05
2023-03-24T11:59:03.456Z,13.02
2023-03-24T12:00:03.313Z,13.02
2023-03-24T12:01:03.322Z,13.09
2023-03-24T12:02:03.278Z,13.19
2023-03-24T12:03:03.402Z,13.30
2023-03-24T12:04:03.753Z,13.43
2023-03-24T12:05:03.262Z,13.55
2023-03-24T12:06:03.251Z,13.67
2023-03-24T12:07:03.239Z,13.64
2023-03-24T12:08:03.206Z,13.61
2023-03-24T12:09:03.537Z,13.55
2023-03-24T12:10:03.180Z,13.53
2023-03-24T12:11:03.219Z,13.46
2023-03-24T12:12:08.304Z,13.49
2023-03-24T12:13:03.158Z,13.58
2023-03-24T12:14:03.173Z,13.76
2023-03-24T12:15:03.153Z,13.79
2023-03-24T12:16:03.152Z,13.83
2023-03-24T12:17:03.096Z,13.90
2023-03-24T12:18:03.111Z,13.96
2023-03-24T12:19:03.385Z,14.04
2023-03-24T12:20:03.056Z,14.16
2023-03-24T12:21:03.052Z,14.28
2023-03-24T12:22:03.045Z,14.38
2023-03-24T12:23:03.019Z,14.40
2023-03-24T12:24:03.352Z,14.37
2023-03-24T12:25:03.000Z,14.33
2023-03-24T12:26:02.980Z,14.31
2023-03-24T12:27:02.985Z,14.37
2023-03-24T12:28:02.955Z,14.41
2023-03-24T12:29:03.133Z,14.34
2023-03-24T12:30:02.937Z,14.44
2023-03-24T12:31:02.939Z,14.41
2023-03-24T12:32:02.899Z,14.28
2023-03-24T12:33:02.954Z,14.12
2023-03-24T12:34:03.200Z,14.09
2023-03-24T12:35:02.874Z,14.28
2023-03-24T12:36:02.876Z,14.34
2023-03-24T12:37:02.843Z,14.52
2023-03-24T12:38:02.840Z,14.78
2023-03-24T12:39:03.121Z,14.87
2023-03-24T12:40:02.811Z,15.01
2023-03-24T12:41:02.802Z,14.89
2023-03-24T12:42:02.783Z,14.93
2023-03-24T12:43:02.776Z,14.82
2023-03-24T12:44:02.786Z,14.59
2023-03-24T12:45:02.770Z,14.64
2023-03-24T12:46:02.776Z,14.61
2023-03-24T12:47:02.731Z,14.53
2023-03-24T12:48:02.735Z,14.61
2023-03-24T12:49:02.982Z,14.67
2023-03-24T12:50:02.697Z,14.78
2023-03-24T12:51:02.689Z,15.08
2023-03-24T12:52:02.669Z,15.32
2023-03-24T12:53:07.608Z,15.56